サンホセ/フアン・サンタ・マリア の空港の天気 - METARとTAF

フアン・サンタ・マリア国際空港 ( MROC / SJO ) - コスタリカ サンホセ
飛行場実況気象(Metar)
観測時間10/17 21:00 CST (10/18 03:00 UTC)
風向・風速北北西 2m/s
視程10km以上
天気現象弱い雨
少しの雲 雲底高度 300m
全天の8割程度の雲 雲底高度 3050m
気温19℃
湿度100%
気圧1019hPa
METARMROC 180300Z 34003KT 9999 -RA FEW010 BKN100 19/19 A3008 NOSIG
過去の天気等 Google飛行場航空写真 Wunderground天気予報

過去48時間のMETAR

飛行場予報(TAF)
発表時間: 10/17 17:00 CST (10/17 23:00 UTC)
予報対象時間: 17日18時 CST ~ 18日18時 CST
風向・風速南西 4m/s
視程10km以上
天気現象散在した霧
少しの雲 雲底高度 30m
全天の4割程度の雲 雲底高度 300m
全天の8割程度の雲 雲底高度 2740m
17日18時 CST ~ 17日24時 CST に一時的に
風向・風速不定 1m/s
視程1200m
天気現象雨 もや
全天の4割程度の雲 雲底高度 30m
全天の8割程度の雲 雲底高度 370m
18日0時 CST ~ 18日2時 CST に徐々に
風向・風速北東 3m/s
18日9時 CST ~ 18日11時 CST に徐々に
風向・風速南西 4m/s
MROC 172300Z 1800/1824 22007KT 9999 BCFG FEW001 SCT010 BKN090 TX28/1818Z TN19/1810Z
TEMPO 1800/1806 VRB02KT 1200 RA BR SCT001 BKN012
BECMG 1806/1808 05006KT
BECMG 1815/1817 23007KT